Cecil, Georgia
Current Conditions -  °F | °C
As of 6:58 PM on Tuesday 25 Nov 2014 (Local Time) from KVAD Reporting Station
Light Rain Light Rain  
Wind Chill: 53°   Ceiling: 400
Heat Index: 53°   Visibility: 10mi
Dew Point: 51°   Wind: 7mph
Humidity: 95%   Direction: 360°N
Pressure: 30"   Gusts: NA
Location:  31.05°N, 83.39°W
Report Text: KVAD 252358Z AUTO 36006KT 10SM -RA BKN004 BKN030 OVC055 11/11 A3000 RMK AO2 CIG 004V022 SLP161 P0002 60004 T01140106 10145 20113 53007 $
Loading
Personal Weather Stations






























Interactive Weather Map New forecast layout! Learn more

10-Day Weather Forecast

Advertisements
Track Severe Weather on mobile